KOBE/OBE METAR and TAF weather

Enter ICAO airport designator
Station Type Date Time Source
KOBE METAR 2019/12/08 03:55 UTC NOAA

KOBE 080355Z AUTO 00000KT OVC100 17/13 A3016 RMK AO2 PWINO


Station Type Date Time Source
KOBE Decoded METAR 2019/12/08 03:55 UTC NOAA

Okeechobee County Airport, FL, United States (KOBE) 27-15-60N 080-51-02W
Dec 07, 2019 - 10:55 PM EST / 2019.12.08 0355 UTC
Wind: Calm:0
Sky conditions: overcast
Temperature: 62 F (17 C)
Dew Point: 55 F (13 C)
Relative Humidity: 77%
Pressure (altimeter): 30.16 in. Hg (1021 hPa)
ob: KOBE 080355Z AUTO 00000KT OVC100 17/13 A3016 RMK AO2 PWINO
cycle: 4

Station Type Date Time Source
KOBE TAF UTC NOAA

Error!

Example: see airport list